Time;durP1;ratioP1;P1;durP2;ratioP2;P2;SDS_P1;SDS_P2;PMS_P1;PMS_P2;Temp;Humidity;BMP_temperature;BMP_pressure;BME280_temperature;BME280_humidity;BME280_pressure;Samples;Min_cycle;Max_cycle;Signal;HPM_P1;HPM_P2
2021/03/01 00:01:20;;;;;;;13.70;3.88;;;;;;;;;;5082344;28;20018;-39
2021/03/01 00:03:47;;;;;;;15.77;3.97;;;;;;;;;;5081329;28;20103;-39
2021/03/01 00:06:14;;;;;;;20.27;5.10;;;;;;;;;;5076665;28;20020;-38
2021/03/01 00:08:41;;;;;;;25.38;5.20;;;;;;;;;;5079525;28;20019;-38
2021/03/01 00:11:08;;;;;;;29.50;5.57;;;;;;;;;;5077279;28;20048;-38
2021/03/01 00:13:35;;;;;;;24.13;5.40;;;;;;;;;;5081559;28;20118;-39
2021/03/01 00:16:03;;;;;;;22.95;5.13;;;;;;;;;;5084399;28;20024;-38
2021/03/01 00:18:30;;;;;;;13.32;4.45;;;;;;;;;;5083579;28;20094;-39
2021/03/01 00:20:56;;;;;;;23.40;4.57;;;;;;;;;;5085457;28;20024;-39
2021/03/01 00:23:23;;;;;;;17.08;4.40;;;;;;;;;;5079712;28;20070;-38
2021/03/01 00:25:50;;;;;;;19.38;4.55;;;;;;;;;;5086066;28;20055;-38
2021/03/01 00:28:17;;;;;;;20.63;4.93;;;;;;;;;;5090816;28;20089;-39
2021/03/01 00:30:44;;;;;;;26.08;5.10;;;;;;;;;;5082792;28;20020;-38
2021/03/01 00:33:11;;;;;;;18.13;4.10;;;;;;;;;;5090873;28;20040;-39
2021/03/01 00:35:38;;;;;;;16.73;4.88;;;;;;;;;;5076630;28;20091;-39
2021/03/01 00:38:05;;;;;;;12.45;3.85;;;;;;;;;;5080040;28;20050;-42
2021/03/01 00:40:32;;;;;;;9.55;3.85;;;;;;;;;;5080328;28;20024;-40
2021/03/01 00:42:59;;;;;;;22.17;4.43;;;;;;;;;;5082638;28;20032;-39
2021/03/01 00:45:26;;;;;;;17.33;4.13;;;;;;;;;;5077261;28;20016;-42
2021/03/01 00:47:54;;;;;;;12.20;3.42;;;;;;;;;;5082515;28;20037;-42
2021/03/01 00:50:21;;;;;;;19.15;4.25;;;;;;;;;;5086106;28;20020;-36
2021/03/01 00:52:49;;;;;;;16.92;4.00;;;;;;;;;;5087065;28;20032;-37
2021/03/01 00:55:16;;;;;;;12.25;3.65;;;;;;;;;;5076491;28;20021;-41
2021/03/01 00:57:44;;;;;;;12.48;3.28;;;;;;;;;;5079705;28;20031;-39
2021/03/01 01:00:13;;;;;;;13.32;3.90;;;;;;;;;;5076800;28;20110;-38
2021/03/01 01:02:40;;;;;;;15.45;2.75;;;;;;;;;;5073284;28;20031;-38
2021/03/01 01:05:07;;;;;;;20.40;3.80;;;;;;;;;;5075569;28;20031;-39
2021/03/01 01:07:34;;;;;;;11.15;2.97;;;;;;;;;;5072083;28;20030;-39
2021/03/01 01:10:03;;;;;;;8.50;3.08;;;;;;;;;;5080089;28;20071;-39
2021/03/01 01:12:30;;;;;;;13.52;3.58;;;;;;;;;;5078502;28;20040;-39
2021/03/01 01:14:57;;;;;;;9.35;3.05;;;;;;;;;;5081617;28;20748;-40
2021/03/01 01:17:24;;;;;;;18.10;3.38;;;;;;;;;;5075801;28;20068;-38
2021/03/01 01:19:52;;;;;;;9.63;2.80;;;;;;;;;;5082737;28;20084;-38
2021/03/01 01:22:19;;;;;;;8.02;2.53;;;;;;;;;;5080096;28;20075;-39
2021/03/01 01:24:46;;;;;;;7.45;3.00;;;;;;;;;;5075928;28;20500;-38
2021/03/01 01:27:13;;;;;;;11.82;3.55;;;;;;;;;;5072065;28;20004;-38
2021/03/01 01:29:40;;;;;;;12.45;3.97;;;;;;;;;;5075217;28;20032;-40
2021/03/01 01:32:07;;;;;;;13.75;3.70;;;;;;;;;;5085980;28;20048;-38
2021/03/01 01:34:35;;;;;;;11.70;3.50;;;;;;;;;;5080572;28;20028;-39
2021/03/01 01:37:02;;;;;;;13.35;3.28;;;;;;;;;;5071757;28;20483;-39
2021/03/01 01:39:29;;;;;;;9.15;2.67;;;;;;;;;;5086955;28;20372;-38
2021/03/01 01:41:56;;;;;;;13.02;3.10;;;;;;;;;;5085499;28;20103;-35
2021/03/01 01:44:23;;;;;;;8.30;2.90;;;;;;;;;;5074355;28;20056;-36
2021/03/01 01:46:50;;;;;;;8.23;3.03;;;;;;;;;;5073994;28;20032;-36
2021/03/01 01:49:17;;;;;;;8.10;3.05;;;;;;;;;;5163286;22;20013;-36
2021/03/01 01:51:44;;;;;;;9.90;3.03;;;;;;;;;;5054856;28;20495;-35
2021/03/01 01:54:13;;;;;;;7.85;2.72;;;;;;;;;;5063316;28;20496;-36
2021/03/01 01:56:40;;;;;;;14.30;3.38;;;;;;;;;;5068062;28;20062;-36
2021/03/01 01:59:08;;;;;;;14.43;3.20;;;;;;;;;;5063484;28;20032;-36
2021/03/01 02:01:35;;;;;;;11.57;2.90;;;;;;;;;;5072784;28;20041;-36
2021/03/01 02:04:11;;;;;;;9.57;2.70;;;;;;;;;;5073673;28;20070;-39
2021/03/01 02:06:56;;;;;;;14.75;2.80;;;;;;;;;;5062773;28;20037;-36
2021/03/01 02:09:36;;;;;;;9.55;2.67;;;;;;;;;;5055877;28;20071;-36
2021/03/01 02:12:19;;;;;;;8.13;2.70;;;;;;;;;;5068781;28;20457;-36
2021/03/01 02:14:55;;;;;;;14.70;2.90;;;;;;;;;;5063560;28;20031;-35
2021/03/01 02:17:24;;;;;;;7.32;2.58;;;;;;;;;;5068948;28;20483;-34
2021/03/01 02:19:51;;;;;;;11.52;2.83;;;;;;;;;;5073289;28;20056;-35
2021/03/01 02:22:18;;;;;;;11.38;2.35;;;;;;;;;;5067862;28;20023;-35
2021/03/01 02:24:51;;;;;;;11.70;3.15;;;;;;;;;;5071313;28;20028;-35
2021/03/01 02:27:22;;;;;;;8.13;3.03;;;;;;;;;;5072300;28;20028;-36
2021/03/01 02:29:52;;;;;;;7.32;2.65;;;;;;;;;;5074190;28;20037;-37
2021/03/01 02:32:19;;;;;;;14.45;2.63;;;;;;;;;;5074298;28;20078;-36
2021/03/01 02:34:48;;;;;;;13.82;2.38;;;;;;;;;;5092212;28;20032;-37
2021/03/01 02:37:17;;;;;;;9.00;2.45;;;;;;;;;;5093743;28;20024;-37
2021/03/01 02:39:45;;;;;;;5.82;1.83;;;;;;;;;;5095178;28;20111;-38
2021/03/01 02:42:15;;;;;;;9.68;2.20;;;;;;;;;;5095038;28;20024;-39
2021/03/01 02:44:42;;;;;;;6.57;1.90;;;;;;;;;;5094990;28;20032;-37
2021/03/01 02:47:10;;;;;;;7.47;1.95;;;;;;;;;;5095230;28;20597;-38
2021/03/01 02:49:38;;;;;;;6.22;1.80;;;;;;;;;;5101715;28;20024;-38
2021/03/01 02:52:05;;;;;;;5.55;2.08;;;;;;;;;;5115450;28;20112;-39
2021/03/01 02:54:33;;;;;;;6.88;2.67;;;;;;;;;;5115335;28;20128;-38
2021/03/01 02:57:01;;;;;;;6.53;2.03;;;;;;;;;;5115453;28;20020;-38
2021/03/01 02:59:29;;;;;;;5.13;1.65;;;;;;;;;;5115376;28;20085;-38
2021/03/01 03:01:56;;;;;;;4.90;1.80;;;;;;;;;;5114491;28;20026;-37
2021/03/01 03:04:24;;;;;;;4.72;2.13;;;;;;;;;;5115347;28;20028;-37
2021/03/01 03:06:52;;;;;;;5.07;1.73;;;;;;;;;;5115360;28;20125;-37
2021/03/01 03:09:20;;;;;;;5.20;2.10;;;;;;;;;;5115425;28;20023;-38
2021/03/01 03:11:47;;;;;;;6.70;2.35;;;;;;;;;;5114552;28;20408;-38
2021/03/01 03:14:17;;;;;;;10.20;2.17;;;;;;;;;;5115218;28;20035;-39
2021/03/01 03:16:44;;;;;;;4.00;1.75;;;;;;;;;;5115148;28;20502;-37
2021/03/01 03:19:11;;;;;;;6.68;2.15;;;;;;;;;;5115196;28;20028;-39
2021/03/01 03:21:38;;;;;;;5.32;1.80;;;;;;;;;;5115018;28;20098;-39
2021/03/01 03:24:06;;;;;;;9.63;2.03;;;;;;;;;;5115033;28;20069;-38
2021/03/01 03:26:33;;;;;;;6.55;1.70;;;;;;;;;;5115034;28;20047;-38
2021/03/01 03:29:00;;;;;;;5.43;1.80;;;;;;;;;;5114943;28;20095;-39
2021/03/01 03:31:27;;;;;;;3.50;1.42;;;;;;;;;;5114801;28;20506;-39
2021/03/01 03:33:55;;;;;;;4.38;1.70;;;;;;;;;;5114887;28;20223;-38
2021/03/01 03:36:23;;;;;;;6.97;1.80;;;;;;;;;;5114770;28;20024;-38
2021/03/01 03:39:09;;;;;;;3.47;1.42;;;;;;;;;;5114677;28;20024;-38
2021/03/01 03:41:36;;;;;;;9.82;2.05;;;;;;;;;;5115124;28;20031;-38
2021/03/01 03:44:04;;;;;;;3.05;1.65;;;;;;;;;;5114905;28;20024;-39
2021/03/01 03:46:32;;;;;;;5.30;1.60;;;;;;;;;;5114566;28;20019;-38
2021/03/01 03:49:00;;;;;;;4.20;1.60;;;;;;;;;;5114589;28;20031;-39
2021/03/01 03:51:32;;;;;;;4.53;1.85;;;;;;;;;;5114413;28;20129;-38
2021/03/01 03:54:02;;;;;;;4.97;1.50;;;;;;;;;;5114379;28;20055;-38
2021/03/01 03:56:30;;;;;;;5.03;1.73;;;;;;;;;;5114290;28;20016;-38
2021/03/01 03:58:59;;;;;;;7.07;1.80;;;;;;;;;;5114306;28;20038;-39
2021/03/01 04:01:27;;;;;;;3.25;1.20;;;;;;;;;;5114364;28;20085;-38
2021/03/01 04:03:55;;;;;;;5.43;1.73;;;;;;;;;;5114238;28;20020;-38
2021/03/01 04:06:23;;;;;;;3.50;1.25;;;;;;;;;;5114090;28;20074;-38
2021/03/01 04:08:51;;;;;;;5.07;1.52;;;;;;;;;;5114311;28;20016;-39
2021/03/01 04:11:24;;;;;;;4.20;1.48;;;;;;;;;;5113928;28;20026;-38
2021/03/01 04:13:52;;;;;;;2.75;1.50;;;;;;;;;;5113953;28;20552;-39
2021/03/01 04:16:20;;;;;;;4.25;1.30;;;;;;;;;;5114293;28;20020;-38
2021/03/01 04:18:49;;;;;;;5.90;1.55;;;;;;;;;;5114136;28;20019;-38
2021/03/01 04:21:18;;;;;;;3.00;1.42;;;;;;;;;;5113651;28;20016;-38
2021/03/01 04:23:46;;;;;;;3.67;1.48;;;;;;;;;;5112891;28;20541;-38
2021/03/01 04:26:14;;;;;;;6.75;1.80;;;;;;;;;;5113900;28;20494;-39
2021/03/01 04:28:42;;;;;;;3.72;1.40;;;;;;;;;;5113793;28;20028;-39
2021/03/01 04:31:10;;;;;;;2.20;1.20;;;;;;;;;;5113593;28;20448;-39
2021/03/01 04:33:38;;;;;;;2.83;1.60;;;;;;;;;;5095296;28;20032;-38
2021/03/01 04:36:06;;;;;;;5.05;1.73;;;;;;;;;;5113614;28;20478;-39
2021/03/01 04:38:35;;;;;;;3.67;1.38;;;;;;;;;;5113639;28;20482;-38
2021/03/01 04:41:03;;;;;;;9.95;2.15;;;;;;;;;;5113257;28;20095;-38
2021/03/01 04:43:31;;;;;;;6.53;1.75;;;;;;;;;;5113707;28;20022;-38
2021/03/01 04:45:58;;;;;;;5.53;1.83;;;;;;;;;;5113400;28;20098;-38
2021/03/01 04:48:26;;;;;;;3.10;1.58;;;;;;;;;;5113293;28;20042;-40
2021/03/01 04:50:54;;;;;;;2.28;1.45;;;;;;;;;;5094912;28;20430;-38
2021/03/01 04:53:21;;;;;;;3.33;1.52;;;;;;;;;;5113125;28;20035;-38
2021/03/01 04:55:48;;;;;;;3.05;1.42;;;;;;;;;;5113381;28;20069;-41
2021/03/01 04:58:19;;;;;;;3.67;1.60;;;;;;;;;;5113419;28;20061;-38
2021/03/01 05:00:47;;;;;;;3.60;1.90;;;;;;;;;;5113121;28;20408;-38
2021/03/01 05:03:14;;;;;;;4.43;1.60;;;;;;;;;;5112904;28;20032;-40
2021/03/01 05:05:42;;;;;;;3.22;1.80;;;;;;;;;;5113098;28;20030;-40
2021/03/01 05:08:12;;;;;;;1.52;1.30;;;;;;;;;;5113188;28;20026;-39
2021/03/01 05:10:39;;;;;;;3.95;1.60;;;;;;;;;;5112965;28;20479;-38
2021/03/01 05:13:07;;;;;;;3.92;1.52;;;;;;;;;;5112835;28;20040;-39
2021/03/01 05:15:34;;;;;;;4.68;1.58;;;;;;;;;;5112896;28;20055;-39
2021/03/01 05:18:02;;;;;;;2.05;1.55;;;;;;;;;;5112879;28;20023;-38
2021/03/01 05:20:29;;;;;;;5.65;1.40;;;;;;;;;;5112912;28;20031;-39
2021/03/01 05:22:56;;;;;;;2.55;1.52;;;;;;;;;;5112968;28;20055;-38
2021/03/01 05:25:23;;;;;;;3.10;1.88;;;;;;;;;;5112881;28;20031;-39
2021/03/01 05:27:50;;;;;;;3.40;1.55;;;;;;;;;;5112886;28;20019;-38
2021/03/01 05:30:17;;;;;;;4.90;1.80;;;;;;;;;;5112988;28;20120;-39
2021/03/01 05:32:44;;;;;;;3.42;1.30;;;;;;;;;;5112749;28;20065;-38
2021/03/01 05:35:11;;;;;;;5.45;2.00;;;;;;;;;;5112479;28;20019;-40
2021/03/01 05:37:38;;;;;;;5.45;1.70;;;;;;;;;;5094657;28;20394;-38
2021/03/01 05:40:06;;;;;;;2.88;1.52;;;;;;;;;;5112703;28;20030;-38
2021/03/01 05:42:35;;;;;;;6.85;1.83;;;;;;;;;;5112684;28;20020;-40
2021/03/01 05:45:06;;;;;;;3.42;1.77;;;;;;;;;;5112722;28;20035;-38
2021/03/01 05:47:35;;;;;;;5.03;1.70;;;;;;;;;;5112666;28;20031;-38
2021/03/01 05:50:03;;;;;;;3.15;1.55;;;;;;;;;;5112395;28;20043;-38
2021/03/01 05:52:31;;;;;;;2.60;1.75;;;;;;;;;;5112706;28;20058;-39
2021/03/01 05:54:58;;;;;;;4.07;1.58;;;;;;;;;;5112692;28;20023;-38
2021/03/01 05:57:25;;;;;;;2.15;1.50;;;;;;;;;;5112552;28;20024;-39
2021/03/01 05:59:52;;;;;;;3.92;1.52;;;;;;;;;;5112374;28;20028;-40
2021/03/01 06:02:19;;;;;;;2.25;1.40;;;;;;;;;;5112526;28;20023;-39
2021/03/01 06:04:46;;;;;;;2.88;1.65;;;;;;;;;;5112488;28;20024;-38
2021/03/01 06:07:13;;;;;;;1.95;1.50;;;;;;;;;;5112516;28;20047;-39
2021/03/01 06:09:40;;;;;;;3.70;1.60;;;;;;;;;;5112642;28;20024;-39
2021/03/01 06:12:08;;;;;;;4.32;1.58;;;;;;;;;;5112274;28;20016;-38
2021/03/01 06:14:35;;;;;;;4.60;1.70;;;;;;;;;;5112187;28;20027;-40
2021/03/01 06:17:11;;;;;;;3.55;1.73;;;;;;;;;;5112344;28;20082;-38
2021/03/01 06:19:44;;;;;;;5.05;1.80;;;;;;;;;;5112352;28;20434;-40
2021/03/01 06:22:11;;;;;;;2.88;1.65;;;;;;;;;;5112253;28;20035;-39
2021/03/01 06:24:38;;;;;;;3.90;2.15;;;;;;;;;;5112251;28;20024;-39
2021/03/01 06:27:06;;;;;;;4.50;1.85;;;;;;;;;;5112225;28;20028;-38
2021/03/01 06:29:33;;;;;;;3.28;1.95;;;;;;;;;;5112368;28;20020;-39
2021/03/01 06:32:00;;;;;;;3.17;1.67;;;;;;;;;;5112051;28;20031;-39
2021/03/01 06:34:34;;;;;;;3.30;1.52;;;;;;;;;;5112382;28;20352;-38
2021/03/01 06:37:04;;;;;;;3.10;1.90;;;;;;;;;;5112186;28;20023;-38
2021/03/01 06:39:41;;;;;;;4.13;2.03;;;;;;;;;;5111958;28;20028;-38
2021/03/01 06:42:23;;;;;;;4.35;2.10;;;;;;;;;;5112193;28;20035;-39
2021/03/01 06:44:50;;;;;;;3.55;1.73;;;;;;;;;;5093845;28;20102;-38
2021/03/01 06:47:17;;;;;;;2.63;1.42;;;;;;;;;;5096562;28;20360;-39
2021/03/01 06:49:45;;;;;;;6.63;1.67;;;;;;;;;;5115452;28;20016;-38
2021/03/01 06:52:32;;;;;;;3.03;1.48;;;;;;;;;;5115402;28;20038;-39
2021/03/01 06:55:08;;;;;;;3.17;1.60;;;;;;;;;;5115610;28;20059;-39
2021/03/01 06:57:35;;;;;;;3.22;1.65;;;;;;;;;;5115569;28;20111;-39
2021/03/01 07:00:03;;;;;;;2.92;1.85;;;;;;;;;;5115722;28;20024;-38
2021/03/01 07:02:39;;;;;;;5.53;1.73;;;;;;;;;;5115314;28;20510;-39
2021/03/01 07:05:07;;;;;;;2.35;1.50;;;;;;;;;;5115293;28;20539;-38
2021/03/01 07:07:37;;;;;;;3.78;1.60;;;;;;;;;;5115464;28;20023;-38
2021/03/01 07:10:05;;;;;;;4.85;2.03;;;;;;;;;;5115322;28;20048;-39
2021/03/01 07:12:49;;;;;;;4.00;1.90;;;;;;;;;;5115089;28;20148;-39
2021/03/01 07:15:16;;;;;;;4.53;1.90;;;;;;;;;;5115213;28;20028;-38
2021/03/01 07:17:44;;;;;;;2.42;1.80;;;;;;;;;;5115276;28;20073;-39
2021/03/01 07:20:15;;;;;;;4.78;1.70;;;;;;;;;;5115132;28;20023;-39
2021/03/01 07:22:43;;;;;;;3.50;2.00;;;;;;;;;;5115064;28;20020;-39
2021/03/01 07:25:11;;;;;;;3.80;1.65;;;;;;;;;;5115103;28;20028;-38
2021/03/01 07:27:39;;;;;;;3.38;1.90;;;;;;;;;;5115168;28;20034;-39
2021/03/01 07:30:06;;;;;;;2.95;1.65;;;;;;;;;;5114756;28;20438;-39
2021/03/01 07:32:34;;;;;;;4.90;2.15;;;;;;;;;;5114839;28;20063;-40
2021/03/01 07:35:02;;;;;;;3.03;1.83;;;;;;;;;;5115070;28;20389;-40
2021/03/01 07:37:29;;;;;;;3.85;2.35;;;;;;;;;;5114787;28;20080;-42
2021/03/01 07:39:56;;;;;;;3.47;2.00;;;;;;;;;;5114769;28;20489;-40
2021/03/01 07:42:24;;;;;;;3.67;2.60;;;;;;;;;;5114859;28;20149;-39
2021/03/01 07:44:54;;;;;;;2.30;1.92;;;;;;;;;;5114373;28;20031;-38
2021/03/01 07:47:27;;;;;;;4.88;2.22;;;;;;;;;;5114430;28;20475;-39
2021/03/01 07:49:54;;;;;;;3.90;2.42;;;;;;;;;;5114274;28;20038;-39
2021/03/01 07:52:21;;;;;;;6.70;2.40;;;;;;;;;;5114465;28;20032;-39
2021/03/01 07:55:05;;;;;;;5.88;2.72;;;;;;;;;;5114477;28;20538;-39
2021/03/01 07:57:33;;;;;;;3.75;2.45;;;;;;;;;;5114003;28;20031;-39
2021/03/01 08:00:02;;;;;;;4.57;2.65;;;;;;;;;;5114341;28;20062;-38
2021/03/01 08:02:33;;;;;;;4.07;2.78;;;;;;;;;;5114296;28;20032;-38
2021/03/01 08:05:01;;;;;;;5.57;2.97;;;;;;;;;;5114222;28;20493;-39
2021/03/01 08:07:48;;;;;;;4.25;2.92;;;;;;;;;;5114185;28;20077;-39
2021/03/01 08:10:41;;;;;;;5.88;3.10;;;;;;;;;;5114144;28;20062;-38
2021/03/01 08:13:09;;;;;;;3.63;3.17;;;;;;;;;;5113919;28;20104;-40
2021/03/01 08:15:43;;;;;;;6.55;3.20;;;;;;;;;;5113934;28;20081;-38
2021/03/01 08:18:11;;;;;;;3.63;2.90;;;;;;;;;;5114189;28;20412;-40
2021/03/01 08:20:40;;;;;;;4.78;3.30;;;;;;;;;;5112492;28;20019;-38
2021/03/01 08:23:08;;;;;;;7.75;3.47;;;;;;;;;;5093342;28;20077;-39
2021/03/01 08:25:44;;;;;;;4.38;3.53;;;;;;;;;;5093645;28;20043;-39
2021/03/01 08:28:17;;;;;;;7.38;4.07;;;;;;;;;;5093442;28;20036;-39
2021/03/01 08:30:48;;;;;;;6.65;4.72;;;;;;;;;;5093138;28;20054;-38
2021/03/01 08:33:15;;;;;;;6.57;4.75;;;;;;;;;;5074970;28;20653;-39
2021/03/01 08:35:46;;;;;;;6.40;4.78;;;;;;;;;;5093392;28;20012;-38
2021/03/01 08:38:14;;;;;;;7.20;4.50;;;;;;;;;;5093416;28;20081;-40
2021/03/01 08:40:54;;;;;;;9.35;5.13;;;;;;;;;;5093115;28;20012;-39
2021/03/01 08:43:36;;;;;;;7.40;5.07;;;;;;;;;;5093153;28;20016;-38
2021/03/01 08:46:03;;;;;;;;;;;;;;;;;;5093575;28;20050;-38
2021/03/01 08:48:30;;;;;;;6.32;4.72;;;;;;;;;;5093092;28;19904;-38
2021/03/01 08:50:57;;;;;;;7.55;4.82;;;;;;;;;;5092695;28;20136;-39
2021/03/01 08:53:28;;;;;;;7.00;5.22;;;;;;;;;;5092883;28;20032;-39
2021/03/01 08:55:56;;;;;;;5.82;4.53;;;;;;;;;;5074902;28;20438;-39
2021/03/01 08:58:24;;;;;;;6.72;4.30;;;;;;;;;;5092905;28;20020;-39
2021/03/01 09:01:00;;;;;;;5.57;4.05;;;;;;;;;;5092794;28;20475;-39
2021/03/01 09:03:34;;;;;;;4.85;3.78;;;;;;;;;;5092756;28;20055;-39
2021/03/01 09:06:04;;;;;;;5.85;3.90;;;;;;;;;;5244421;22;20040;-41
2021/03/01 09:08:33;;;;;;;5.47;3.38;;;;;;;;;;5092438;28;20036;-39
2021/03/01 09:11:01;;;;;;;5.38;3.58;;;;;;;;;;5092917;28;20020;-38
2021/03/01 09:13:28;;;;;;;3.75;3.35;;;;;;;;;;5092503;28;20035;-38
2021/03/01 09:15:55;;;;;;;6.88;3.78;;;;;;;;;;5092409;28;20016;-38
2021/03/01 09:18:22;;;;;;;4.80;4.18;;;;;;;;;;5092539;28;20031;-38
2021/03/01 09:20:52;;;;;;;7.95;3.47;;;;;;;;;;5092135;28;20364;-36
2021/03/01 09:23:37;;;;;;;6.68;4.30;;;;;;;;;;5108218;28;20051;-38
2021/03/01 09:26:05;;;;;;;5.80;3.80;;;;;;;;;;5108108;28;20447;-38
2021/03/01 09:28:35;;;;;;;6.30;3.65;;;;;;;;;;5092653;28;21041;-38
2021/03/01 09:31:04;;;;;;;5.32;4.03;;;;;;;;;;5092703;28;20012;-38
2021/03/01 09:33:31;;;;;;;8.40;4.47;;;;;;;;;;5092132;28;20040;-38
2021/03/01 09:35:58;;;;;;;8.27;4.20;;;;;;;;;;5092416;28;20371;-38
2021/03/01 09:38:25;;;;;;;6.97;3.85;;;;;;;;;;5092270;28;20107;-38
2021/03/01 09:40:59;;;;;;;7.75;3.63;;;;;;;;;;5092299;28;20065;-38
2021/03/01 09:43:26;;;;;;;4.43;3.50;;;;;;;;;;5092123;28;20024;-38
2021/03/01 09:45:53;;;;;;;6.45;3.47;;;;;;;;;;5092255;28;20020;-38
2021/03/01 09:48:20;;;;;;;6.85;3.70;;;;;;;;;;5092115;28;20989;-40
2021/03/01 09:50:48;;;;;;;6.22;3.40;;;;;;;;;;5092148;28;20016;-38
2021/03/01 09:53:18;;;;;;;5.05;3.95;;;;;;;;;;5092132;28;20106;-38
2021/03/01 09:55:46;;;;;;;6.60;3.42;;;;;;;;;;5091944;28;20538;-38
2021/03/01 09:58:25;;;;;;;4.88;3.17;;;;;;;;;;5091970;28;20388;-38
2021/03/01 10:00:52;;;;;;;5.78;3.40;;;;;;;;;;5091795;28;20794;-38
2021/03/01 10:03:19;;;;;;;6.97;3.40;;;;;;;;;;5092127;28;20502;-38
2021/03/01 10:05:51;;;;;;;5.85;3.50;;;;;;;;;;5091642;28;20032;-38
2021/03/01 10:08:21;;;;;;;6.47;3.38;;;;;;;;;;5091955;28;20479;-37
2021/03/01 10:10:48;;;;;;;6.90;3.85;;;;;;;;;;5092111;28;20365;-39
2021/03/01 10:13:24;;;;;;;5.35;3.40;;;;;;;;;;5091780;28;20067;-38
2021/03/01 10:15:52;;;;;;;6.85;3.45;;;;;;;;;;5091954;28;20375;-40
2021/03/01 10:18:20;;;;;;;6.13;3.17;;;;;;;;;;5090889;28;20078;-41
2021/03/01 10:20:48;;;;;;;6.65;3.65;;;;;;;;;;5092534;28;20021;-39
2021/03/01 10:23:26;;;;;;;8.45;3.92;;;;;;;;;;5095801;28;20371;-39
2021/03/01 10:26:02;;;;;;;7.10;3.28;;;;;;;;;;5095567;28;20095;-38
2021/03/01 10:28:31;;;;;;;7.25;3.75;;;;;;;;;;5095463;28;20108;-39
2021/03/01 10:31:00;;;;;;;6.43;3.67;;;;;;;;;;5093196;28;20103;-39
2021/03/01 10:33:27;;;;;;;6.18;3.35;;;;;;;;;;5090426;28;20058;-39
2021/03/01 10:36:11;;;;;;;7.03;3.63;;;;;;;;;;5082765;28;20047;-37
2021/03/01 10:38:55;;;;;;;9.45;3.80;;;;;;;;;;5084243;28;20016;-37
2021/03/01 10:41:22;;;;;;;6.78;3.78;;;;;;;;;;5085649;28;20102;-38
2021/03/01 10:43:53;;;;;;;10.50;4.55;;;;;;;;;;5085338;28;20031;-38
2021/03/01 10:46:52;;;;;;;9.95;4.55;;;;;;;;;;5080221;28;20494;-39
2021/03/01 10:49:21;;;;;;;9.38;4.20;;;;;;;;;;5041577;28;20054;-38
2021/03/01 10:51:49;;;;;;;10.85;4.90;;;;;;;;;;5074941;28;20059;-39
2021/03/01 10:54:16;;;;;;;12.15;4.85;;;;;;;;;;5074835;28;20068;-38
2021/03/01 10:56:43;;;;;;;11.18;5.38;;;;;;;;;;5074834;28;20131;-38
2021/03/01 10:59:10;;;;;;;10.43;5.30;;;;;;;;;;5074945;28;20067;-38
2021/03/01 11:01:38;;;;;;;14.13;5.30;;;;;;;;;;5074626;28;20363;-38
2021/03/01 11:04:06;;;;;;;10.77;5.43;;;;;;;;;;5074712;28;20025;-38
2021/03/01 11:06:33;;;;;;;16.48;5.70;;;;;;;;;;5074510;28;20136;-38
2021/03/01 11:09:01;;;;;;;13.10;5.15;;;;;;;;;;5074589;28;20021;-38
2021/03/01 11:11:28;;;;;;;12.13;4.90;;;;;;;;;;5074656;28;20072;-37
2021/03/01 11:13:55;;;;;;;11.68;5.13;;;;;;;;;;5074724;28;20071;-37
2021/03/01 11:16:22;;;;;;;8.82;4.95;;;;;;;;;;5074367;28;20021;-38
2021/03/01 11:18:49;;;;;;;10.15;4.30;;;;;;;;;;5074470;28;20020;-37
2021/03/01 11:21:16;;;;;;;7.28;4.72;;;;;;;;;;5073258;28;20024;-40
2021/03/01 11:23:44;;;;;;;9.45;4.78;;;;;;;;;;5074401;28;20056;-38
2021/03/01 11:26:11;;;;;;;21.52;4.95;;;;;;;;;;5074285;28;20020;-39
2021/03/01 11:28:38;;;;;;;8.13;4.78;;;;;;;;;;5074411;28;20091;-38
2021/03/01 11:31:05;;;;;;;11.35;5.07;;;;;;;;;;5083708;28;20091;-40
2021/03/01 11:33:33;;;;;;;13.32;5.68;;;;;;;;;;5082835;28;20044;-49
2021/03/01 11:36:01;;;;;;;9.27;5.20;;;;;;;;;;5088727;28;20066;-46
2021/03/01 11:38:29;;;;;;;15.15;5.25;;;;;;;;;;5092347;28;20480;-45
2021/03/01 11:40:57;;;;;;;11.55;5.32;;;;;;;;;;5091486;28;20043;-45
2021/03/01 11:43:25;;;;;;;10.75;5.32;;;;;;;;;;5087693;28;20104;-45
2021/03/01 11:45:52;;;;;;;11.27;5.40;;;;;;;;;;5093455;28;20498;-45
2021/03/01 11:48:19;;;;;;;8.90;5.63;;;;;;;;;;5093489;28;20032;-45
2021/03/01 11:50:49;;;;;;;13.30;5.20;;;;;;;;;;5093764;28;20016;-45
2021/03/01 11:53:16;;;;;;;6.65;5.25;;;;;;;;;;5086938;28;20038;-43
2021/03/01 11:55:44;;;;;;;9.73;5.18;;;;;;;;;;5092108;28;20016;-46
2021/03/01 11:58:11;;;;;;;13.82;5.82;;;;;;;;;;5092668;28;20044;-45
2021/03/01 12:00:41;;;;;;;9.88;5.13;;;;;;;;;;5093489;28;20411;-44
2021/03/01 12:03:11;;;;;;;10.18;5.05;;;;;;;;;;5093274;28;20083;-44
2021/03/01 12:05:40;;;;;;;15.85;5.60;;;;;;;;;;5092826;28;20046;-45
2021/03/01 12:08:07;;;;;;;14.00;5.60;;;;;;;;;;5089856;28;20115;-45
2021/03/01 12:10:35;;;;;;;13.38;5.75;;;;;;;;;;5091157;28;20028;-44
2021/03/01 12:13:02;;;;;;;14.32;5.30;;;;;;;;;;5090744;28;20043;-44
2021/03/01 12:15:30;;;;;;;9.57;5.47;;;;;;;;;;5093321;28;20028;-44
2021/03/01 12:17:57;;;;;;;18.35;6.18;;;;;;;;;;5089269;28;20377;-44
2021/03/01 12:20:25;;;;;;;8.70;5.85;;;;;;;;;;5089983;28;20357;-45
2021/03/01 12:22:52;;;;;;;15.38;5.97;;;;;;;;;;5092568;28;20398;-44
2021/03/01 12:25:19;;;;;;;15.10;6.20;;;;;;;;;;5109080;28;20421;-44
2021/03/01 12:27:46;;;;;;;17.50;5.63;;;;;;;;;;5093119;28;20370;-45
2021/03/01 12:30:13;;;;;;;13.30;5.70;;;;;;;;;;5089452;28;20382;-45
2021/03/01 12:32:40;;;;;;;12.20;5.85;;;;;;;;;;5088552;28;20028;-45
2021/03/01 12:35:08;;;;;;;14.60;5.50;;;;;;;;;;5089935;28;20059;-45
2021/03/01 12:37:35;;;;;;;9.85;5.10;;;;;;;;;;5089525;28;20103;-46
2021/03/01 12:40:02;;;;;;;10.48;5.22;;;;;;;;;;5072419;28;20153;-46
2021/03/01 12:42:28;;;;;;;11.80;5.22;;;;;;;;;;5078027;28;20380;-45
2021/03/01 12:44:56;;;;;;;13.95;5.90;;;;;;;;;;5079764;28;20422;-43
2021/03/01 12:47:23;;;;;;;16.73;5.47;;;;;;;;;;5072652;28;20032;-48
2021/03/01 12:49:50;;;;;;;16.23;5.78;;;;;;;;;;5085326;28;20473;-48
2021/03/01 12:52:20;;;;;;;17.75;5.60;;;;;;;;;;5087834;28;20027;-44
2021/03/01 12:54:48;;;;;;;24.83;5.28;;;;;;;;;;5079544;28;20024;-44
2021/03/01 12:57:14;;;;;;;14.60;5.18;;;;;;;;;;5089078;28;20026;-45
2021/03/01 12:59:42;;;;;;;13.35;5.20;;;;;;;;;;5080076;28;20028;-46
2021/03/01 13:02:09;;;;;;;12.63;5.55;;;;;;;;;;5077719;28;20031;-44
2021/03/01 13:04:36;;;;;;;8.38;5.03;;;;;;;;;;5085078;28;20020;-44
2021/03/01 13:07:03;;;;;;;9.93;4.72;;;;;;;;;;5086682;28;20407;-44
2021/03/01 13:09:31;;;;;;;12.23;5.30;;;;;;;;;;5089058;28;20032;-44
2021/03/01 13:11:58;;;;;;;11.68;5.00;;;;;;;;;;5076478;28;20024;-44
2021/03/01 13:14:25;;;;;;;20.95;5.78;;;;;;;;;;5080921;28;20455;-44
2021/03/01 13:16:52;;;;;;;13.40;5.47;;;;;;;;;;5075398;28;20101;-44
2021/03/01 13:19:19;;;;;;;10.10;5.32;;;;;;;;;;5078838;28;20059;-38
2021/03/01 13:21:46;;;;;;;18.15;6.53;;;;;;;;;;5076836;28;20419;-39
2021/03/01 13:24:13;;;;;;;24.88;5.72;;;;;;;;;;5087235;28;20025;-42
2021/03/01 13:26:41;;;;;;;22.13;5.85;;;;;;;;;;5080475;28;20426;-44
2021/03/01 13:29:08;;;;;;;23.85;4.95;;;;;;;;;;5077099;28;20020;-44
2021/03/01 13:31:37;;;;;;;15.50;5.10;;;;;;;;;;5080439;28;20017;-44
2021/03/01 13:34:05;;;;;;;31.65;5.57;;;;;;;;;;5081278;28;20437;-44
2021/03/01 13:36:35;;;;;;;25.73;6.15;;;;;;;;;;5081629;28;20479;-44
2021/03/01 13:39:02;;;;;;;36.20;5.72;;;;;;;;;;5077716;28;20491;-43
2021/03/01 13:41:29;;;;;;;24.95;5.50;;;;;;;;;;5074132;28;20495;-43
2021/03/01 13:43:56;;;;;;;25.35;5.22;;;;;;;;;;5071253;28;20668;-40
2021/03/01 13:46:23;;;;;;;28.75;5.07;;;;;;;;;;5071697;28;20028;-40
2021/03/01 13:48:50;;;;;;;22.65;5.07;;;;;;;;;;5071570;28;20024;-41
2021/03/01 13:51:18;;;;;;;25.35;5.20;;;;;;;;;;5071475;28;20595;-40
2021/03/01 13:53:45;;;;;;;16.00;4.30;;;;;;;;;;5071274;28;20506;-40
2021/03/01 13:56:12;;;;;;;17.63;4.15;;;;;;;;;;5074259;28;20075;-40
2021/03/01 13:58:39;;;;;;;20.80;5.15;;;;;;;;;;5075550;28;20506;-40
2021/03/01 14:01:06;;;;;;;15.15;4.43;;;;;;;;;;5075567;28;20004;-40
2021/03/01 14:03:33;;;;;;;16.45;5.43;;;;;;;;;;5084132;28;20024;-40
2021/03/01 14:06:01;;;;;;;11.15;4.43;;;;;;;;;;5095210;28;20395;-40
2021/03/01 14:08:28;;;;;;;16.17;4.70;;;;;;;;;;5095718;28;20024;-40
2021/03/01 14:10:55;;;;;;;22.75;5.13;;;;;;;;;;5095902;28;20026;-40
2021/03/01 14:13:22;;;;;;;19.85;5.38;;;;;;;;;;5094248;28;20522;-39
2021/03/01 14:15:49;;;;;;;14.18;4.20;;;;;;;;;;5095687;28;20146;-39
2021/03/01 14:18:16;;;;;;;15.25;3.95;;;;;;;;;;5094505;28;20024;-39
2021/03/01 14:20:43;;;;;;;16.80;4.53;;;;;;;;;;5095454;28;20023;-39
2021/03/01 14:23:10;;;;;;;20.90;5.18;;;;;;;;;;5093937;28;20020;-39
2021/03/01 14:25:37;;;;;;;15.88;4.30;;;;;;;;;;5095590;28;20020;-39
2021/03/01 14:28:04;;;;;;;13.55;4.32;;;;;;;;;;5095255;28;20024;-40
2021/03/01 14:30:31;;;;;;;20.13;4.97;;;;;;;;;;5095337;28;20463;-39
2021/03/01 14:32:59;;;;;;;10.98;4.93;;;;;;;;;;5095398;28;20042;-39
2021/03/01 14:35:26;;;;;;;11.75;3.67;;;;;;;;;;5095040;28;20032;-39
2021/03/01 14:37:53;;;;;;;16.05;3.92;;;;;;;;;;5094997;28;20024;-39
2021/03/01 14:40:20;;;;;;;13.50;3.70;;;;;;;;;;5093984;28;20020;-39
2021/03/01 14:42:48;;;;;;;11.60;4.25;;;;;;;;;;5095003;28;20027;-40
2021/03/01 14:45:15;;;;;;;15.82;5.00;;;;;;;;;;5094959;28;20016;-40
2021/03/01 14:47:42;;;;;;;10.73;4.00;;;;;;;;;;5094978;28;20028;-39